createdAt,value
2023-01-21T00:00:57.913Z,100812.03
2023-01-21T00:05:55.140Z,100779.72
2023-01-21T00:10:53.244Z,100770.28
2023-01-21T00:15:50.523Z,100763.75
2023-01-21T00:20:50.789Z,100849.34
2023-01-21T00:25:51.142Z,100795.78
2023-01-21T00:30:52.083Z,100744.13
2023-01-21T00:35:58.447Z,100849.09
2023-01-21T00:41:03.199Z,100748.78
2023-01-21T00:46:03.638Z,100833.34
2023-01-21T00:51:01.224Z,100723.59
2023-01-21T00:56:03.403Z,100829.41
2023-01-21T01:01:06.263Z,100740.78
2023-01-21T01:06:05.983Z,100810.81
2023-01-21T01:11:03.494Z,100850.34
2023-01-21T01:16:02.126Z,100853.94
2023-01-21T01:21:01.737Z,100829.75
2023-01-21T01:26:01.362Z,100839.59
2023-01-21T01:30:59.956Z,100876.59
2023-01-21T01:36:05.905Z,100775.91
2023-01-21T01:41:06.694Z,100858.91
2023-01-21T01:46:04.015Z,100878.09
2023-01-21T01:51:07.004Z,100872.28
2023-01-21T01:56:05.463Z,100907.47
2023-01-21T02:01:03.358Z,100755.47
2023-01-21T02:06:03.513Z,100754.63
2023-01-21T02:11:03.532Z,100799.78
2023-01-21T02:16:11.915Z,100859.22
2023-01-21T02:21:48.230Z,100759.94
2023-01-21T02:27:30.729Z,100896.06
2023-01-21T02:33:17.885Z,100745.41
2023-01-21T02:38:21.430Z,100900.44
2023-01-21T02:43:29.626Z,100751.72
2023-01-21T02:48:32.793Z,100861.94
2023-01-21T02:53:31.501Z,100885.81
2023-01-21T02:58:31.772Z,100891.91
2023-01-21T03:03:43.701Z,100839.75
2023-01-21T03:08:46.446Z,100824.25
2023-01-21T03:14:08.891Z,100874.72
2023-01-21T03:19:11.086Z,100841.59
2023-01-21T03:24:08.617Z,100894.69
2023-01-21T03:29:09.811Z,100868.13
2023-01-21T03:34:10.752Z,100863.00
2023-01-21T03:39:14.767Z,100885.41
2023-01-21T03:44:11.650Z,100874.97
2023-01-21T03:49:15.577Z,100805.75
2023-01-21T03:54:12.893Z,100837.59
2023-01-21T03:59:09.653Z,100831.84
2023-01-21T04:04:06.501Z,100852.28
2023-01-21T04:09:04.548Z,100882.44
2023-01-21T04:14:01.388Z,100853.50
2023-01-21T04:18:58.159Z,100876.16
2023-01-21T04:23:54.919Z,100826.97
2023-01-21T04:28:52.419Z,100879.19
2023-01-21T04:33:49.249Z,100915.34
2023-01-21T04:38:46.008Z,100892.16
2023-01-21T04:43:42.762Z,100907.59
2023-01-21T04:48:40.241Z,100801.19
2023-01-21T04:53:37.000Z,100916.91
2023-01-21T04:58:34.300Z,100933.28
2023-01-21T05:03:31.121Z,100867.41
2023-01-21T05:08:28.647Z,100945.41
2023-01-21T05:13:25.499Z,100909.31
2023-01-21T05:18:22.380Z,100947.22
2023-01-21T05:23:19.223Z,100969.78
2023-01-21T05:28:16.773Z,100955.88
2023-01-21T05:33:13.615Z,100959.47
2023-01-21T05:38:10.430Z,100964.41
2023-01-21T05:43:07.266Z,100902.72
2023-01-21T05:48:08.475Z,100930.72
2023-01-21T05:53:05.302Z,100884.63
2023-01-21T05:58:02.207Z,100912.75
2023-01-21T06:03:00.353Z,100947.06
2023-01-21T06:07:57.986Z,100932.34
2023-01-21T06:12:54.929Z,100940.06
2023-01-21T06:17:51.930Z,100883.09
2023-01-21T06:22:48.759Z,100978.16
2023-01-21T06:27:46.849Z,100951.47
2023-01-21T06:32:43.845Z,100976.84
2023-01-21T06:37:40.643Z,100979.25
2023-01-21T06:42:38.563Z,100995.69
2023-01-21T06:47:41.498Z,100967.28
2023-01-21T06:52:39.832Z,100958.50
2023-01-21T06:57:39.581Z,100953.38
2023-01-21T07:02:39.518Z,101001.44
2023-01-21T07:07:42.115Z,100889.91
2023-01-21T07:12:40.065Z,100982.25
2023-01-21T07:17:39.533Z,100994.56
2023-01-21T07:22:39.573Z,100993.41
2023-01-21T07:27:37.943Z,100904.00
2023-01-21T07:32:37.348Z,100923.59
2023-01-21T07:37:37.125Z,100999.47
2023-01-21T07:42:34.665Z,100958.31
2023-01-21T07:47:32.841Z,100993.81
2023-01-21T07:52:31.941Z,100980.34
2023-01-21T07:57:28.865Z,100954.69
2023-01-21T08:02:28.275Z,100984.41
2023-01-21T08:07:26.134Z,100976.72
2023-01-21T08:12:27.253Z,101004.03
2023-01-21T08:17:24.328Z,100964.16
2023-01-21T08:22:25.242Z,100980.88
2023-01-21T08:27:25.085Z,100980.56
2023-01-21T08:32:22.077Z,100997.00
2023-01-21T08:37:21.637Z,100968.19
2023-01-21T08:42:19.296Z,100973.41
2023-01-21T08:47:16.487Z,100993.78
2023-01-21T08:52:13.456Z,100939.88
2023-01-21T08:57:10.945Z,100934.94
2023-01-21T09:02:11.501Z,100883.38
2023-01-21T09:07:08.796Z,100970.44
2023-01-21T09:12:06.616Z,100939.47
2023-01-21T09:17:03.858Z,100971.63
2023-01-21T09:22:02.729Z,100838.78
2023-01-21T09:27:00.508Z,100924.50
2023-01-21T09:31:57.723Z,100841.56
2023-01-21T09:36:55.053Z,100882.88
2023-01-21T09:41:55.360Z,100901.75
2023-01-21T09:46:58.381Z,100918.09
2023-01-21T09:52:02.909Z,100909.34
2023-01-21T09:57:46.059Z,100921.09
2023-01-21T10:02:50.413Z,100901.97
2023-01-21T10:07:53.980Z,100876.16
2023-01-21T10:13:14.307Z,100900.66
2023-01-21T10:18:20.152Z,100826.25
2023-01-21T10:23:20.638Z,100906.00
2023-01-21T10:28:23.578Z,100882.28
2023-01-21T10:33:23.425Z,100773.13
2023-01-21T10:38:30.041Z,100853.13
2023-01-21T10:43:40.783Z,100792.50
2023-01-21T10:48:45.682Z,100821.28
2023-01-21T10:53:50.485Z,100856.66
2023-01-21T10:58:52.485Z,100857.41
2023-01-21T11:03:54.799Z,100837.06
2023-01-21T11:08:57.070Z,100755.25
2023-01-21T11:13:58.778Z,100852.53
2023-01-21T11:18:56.034Z,100762.88
2023-01-21T11:23:54.327Z,100850.72
2023-01-21T11:29:06.990Z,100848.06
2023-01-21T11:34:05.562Z,100862.81
2023-01-21T11:39:04.609Z,100834.78
2023-01-21T11:44:16.198Z,100842.13
2023-01-21T11:49:29.759Z,100853.91
2023-01-21T11:54:26.547Z,100843.13
2023-01-21T11:59:27.979Z,100807.63
2023-01-21T12:04:26.122Z,100845.91
2023-01-21T12:09:22.965Z,100824.34
2023-01-21T12:14:27.936Z,100837.53
2023-01-21T12:19:44.589Z,100796.31
2023-01-21T12:25:03.692Z,100784.06
2023-01-21T12:30:11.801Z,100839.94
2023-01-21T12:35:13.673Z,100842.56
2023-01-21T12:40:16.458Z,100833.66
2023-01-21T12:45:19.275Z,100837.22
2023-01-21T12:50:26.414Z,100832.47
2023-01-21T12:55:30.404Z,100852.97
2023-01-21T13:00:33.642Z,100858.03
2023-01-21T13:05:38.396Z,100844.72
2023-01-21T13:10:45.211Z,100860.56
2023-01-21T13:15:48.343Z,100858.94
2023-01-21T13:20:57.394Z,100842.06
2023-01-21T13:26:01.549Z,100877.56
2023-01-21T13:31:05.235Z,100861.94
2023-01-21T13:36:24.048Z,100863.81
2023-01-21T13:41:45.069Z,100884.03
2023-01-21T13:47:02.698Z,100891.00
2023-01-21T13:52:23.140Z,100855.34
2023-01-21T13:58:02.633Z,100893.22
2023-01-21T14:03:09.863Z,100878.63
2023-01-21T14:08:13.193Z,100883.91
2023-01-21T14:13:54.006Z,100863.16
2023-01-21T14:19:13.189Z,100844.19
2023-01-21T14:24:32.199Z,100811.72
2023-01-21T14:29:35.293Z,100787.22
2023-01-21T14:34:43.224Z,100834.84
2023-01-21T14:39:51.464Z,100900.38
2023-01-21T14:45:03.225Z,100883.22
2023-01-21T14:50:00.419Z,100882.66
2023-01-21T14:55:00.298Z,100902.56
2023-01-21T15:00:10.677Z,100911.63
2023-01-21T15:05:19.460Z,100916.56
2023-01-21T15:10:24.425Z,100909.97
2023-01-21T15:15:30.966Z,100918.25
2023-01-21T15:20:49.635Z,100884.03
2023-01-21T15:26:16.742Z,100913.81
2023-01-21T15:31:41.522Z,100890.59
2023-01-21T15:36:46.455Z,100923.94
2023-01-21T15:41:56.367Z,100850.25
2023-01-21T15:47:02.701Z,100914.81
2023-01-21T15:52:13.491Z,100929.38
2023-01-21T15:57:25.198Z,100923.66
2023-01-21T16:02:24.898Z,100938.31
2023-01-21T16:07:32.871Z,100938.53
2023-01-21T16:12:42.849Z,100937.31
2023-01-21T16:17:57.117Z,100922.09
2023-01-21T16:22:59.163Z,100862.19
2023-01-21T16:27:56.922Z,100916.88
2023-01-21T16:33:11.471Z,100928.00
2023-01-21T16:38:12.903Z,100986.06
2023-01-21T16:43:25.149Z,100979.53
2023-01-21T16:48:27.888Z,100946.59
2023-01-21T16:53:25.093Z,100989.28
2023-01-21T16:58:28.981Z,100956.78
2023-01-21T17:03:33.842Z,100996.06
2023-01-21T17:08:31.077Z,100908.69
2023-01-21T17:13:32.134Z,101014.22
2023-01-21T17:18:33.654Z,101008.56
2023-01-21T17:23:34.170Z,101017.69
2023-01-21T17:28:37.195Z,101024.94
2023-01-21T17:33:35.232Z,101006.13
2023-01-21T17:38:38.921Z,101056.41
2023-01-21T17:43:38.685Z,101062.28
2023-01-21T17:48:38.978Z,101035.09
2023-01-21T17:53:40.636Z,101047.16
2023-01-21T17:58:52.085Z,101025.84
2023-01-21T18:03:50.043Z,101040.72
2023-01-21T18:08:46.872Z,101066.66
2023-01-21T18:13:44.166Z,101055.97
2023-01-21T18:18:42.134Z,101074.06
2023-01-21T18:23:39.142Z,101064.84
2023-01-21T18:28:36.122Z,101059.75
2023-01-21T18:33:33.028Z,101049.16
2023-01-21T18:38:33.615Z,101083.16
2023-01-21T18:43:30.520Z,101085.97
2023-01-21T18:48:29.428Z,101075.25
2023-01-21T18:53:29.159Z,101092.22
2023-01-21T18:58:29.741Z,100999.00
2023-01-21T19:03:30.438Z,101109.88
2023-01-21T19:08:28.448Z,101109.03
2023-01-21T19:13:27.390Z,101108.88
2023-01-21T19:18:26.398Z,101092.66
2023-01-21T19:23:24.056Z,101056.88
2023-01-21T19:28:25.760Z,101081.44
2023-01-21T19:33:26.248Z,101106.63
2023-01-21T19:38:25.864Z,101068.22
2023-01-21T19:43:24.128Z,101100.13
2023-01-21T19:48:22.123Z,101085.47
2023-01-21T19:53:21.139Z,101061.44
2023-01-21T19:58:20.841Z,101061.09
2023-01-21T20:03:19.665Z,101122.88
2023-01-21T20:08:21.400Z,101130.56
2023-01-21T20:13:18.912Z,101113.22
2023-01-21T20:18:20.070Z,101130.75
2023-01-21T20:23:17.710Z,101134.34
2023-01-21T20:28:18.813Z,101135.81
2023-01-21T20:33:23.320Z,101104.34
2023-01-21T20:38:28.074Z,101037.78
2023-01-21T20:43:26.520Z,101099.16
2023-01-21T20:48:27.954Z,101080.19
2023-01-21T20:53:27.969Z,101116.50
2023-01-21T20:58:30.964Z,101132.28
2023-01-21T21:03:29.712Z,101028.81
2023-01-21T21:08:27.776Z,101116.75
2023-01-21T21:13:25.613Z,101139.28
2023-01-21T21:18:29.351Z,101109.25
2023-01-21T21:23:26.283Z,101046.47
2023-01-21T21:28:23.336Z,101015.63
2023-01-21T21:33:22.421Z,101009.84
2023-01-21T21:38:21.456Z,101034.63
2023-01-21T21:43:38.589Z,101047.44
2023-01-21T21:48:38.942Z,101025.44
2023-01-21T21:53:36.100Z,101087.63
2023-01-21T21:58:33.069Z,101091.94
2023-01-21T22:03:30.826Z,101087.63
2023-01-21T22:08:28.871Z,101095.53
2023-01-21T22:13:25.675Z,101056.47
2023-01-21T22:18:22.706Z,101075.03
2023-01-21T22:23:19.479Z,101001.69
2023-01-21T22:28:16.963Z,101072.03
2023-01-21T22:33:14.802Z,101099.41
2023-01-21T22:38:11.626Z,101137.28
2023-01-21T22:43:08.915Z,101115.19
2023-01-21T22:48:06.627Z,101148.41
2023-01-21T22:53:03.648Z,101135.41
2023-01-21T22:58:00.444Z,101038.84
2023-01-21T23:02:58.521Z,101138.41
2023-01-21T23:07:55.972Z,101102.13
2023-01-21T23:12:53.019Z,101084.97
2023-01-21T23:17:50.711Z,101130.47
2023-01-21T23:22:47.521Z,101116.63
2023-01-21T23:27:45.514Z,101153.75
2023-01-21T23:32:42.641Z,101133.44
2023-01-21T23:37:39.647Z,101169.28
2023-01-21T23:42:36.484Z,101209.41
2023-01-21T23:47:33.934Z,101205.34
2023-01-21T23:52:30.746Z,101227.22
2023-01-21T23:57:27.633Z,101205.50
